Time;durP1;ratioP1;P1;durP2;ratioP2;P2;SDS_P1;SDS_P2;PMS_P1;PMS_P2;Temp;Humidity;BMP_temperature;BMP_pressure;BME280_temperature;BME280_humidity;BME280_pressure;Samples;Min_cycle;Max_cycle;Signal;HPM_P1;HPM_P2
2021/03/20 00:01:22;;;;;;;6.85;2.80;;;4.80;99.90;;;;;;5003072;28;20141;-88
2021/03/20 00:03:51;;;;;;;15.98;3.58;;;4.80;99.90;;;;;;5011101;28;20045;-88
2021/03/20 00:06:22;;;;;;;7.28;2.92;;;4.80;99.90;;;;;;5001179;28;20053;-88
2021/03/20 00:08:50;;;;;;;8.02;2.83;;;4.70;99.90;;;;;;5000505;28;20045;-89
2021/03/20 00:11:18;;;;;;;10.15;3.08;;;4.70;99.90;;;;;;4996232;28;20041;-88
2021/03/20 00:13:46;;;;;;;14.07;3.30;;;4.70;99.90;;;;;;4994792;28;20061;-88
2021/03/20 00:16:13;;;;;;;11.63;3.15;;;4.70;99.90;;;;;;4994902;28;20145;-88
2021/03/20 00:18:42;;;;;;;8.68;2.92;;;4.70;99.90;;;;;;4994056;28;20049;-88
2021/03/20 00:21:09;;;;;;;10.67;3.67;;;4.70;99.90;;;;;;4993197;28;20054;-88
2021/03/20 00:23:36;;;;;;;11.75;3.67;;;4.70;99.90;;;;;;4994882;28;20153;-88
2021/03/20 00:26:04;;;;;;;8.25;2.92;;;4.70;99.90;;;;;;4994519;28;20138;-88
2021/03/20 00:28:31;;;;;;;11.70;3.22;;;4.70;99.90;;;;;;4992219;28;20050;-88
2021/03/20 00:31:06;;;;;;;10.80;3.28;;;4.70;99.90;;;;;;5000285;28;20038;-88
2021/03/20 00:33:33;;;;;;;13.48;3.65;;;4.70;99.90;;;;;;4996708;28;20049;-88
2021/03/20 00:36:00;;;;;;;11.02;3.63;;;4.70;99.90;;;;;;4993571;28;20112;-88
2021/03/20 00:38:28;;;;;;;14.20;2.97;;;4.70;99.90;;;;;;5012350;28;20057;-88
2021/03/20 00:40:57;;;;;;;10.45;2.50;;;4.70;99.90;;;;;;5012366;28;20086;-88
2021/03/20 00:43:24;;;;;;;12.00;3.33;;;4.70;99.90;;;;;;4991736;28;20099;-88
2021/03/20 00:45:52;;;;;;;11.00;3.10;;;4.70;99.90;;;;;;4993050;28;20045;-88
2021/03/20 00:48:24;;;;;;;11.02;3.20;;;4.70;99.90;;;;;;4992766;28;20475;-88
2021/03/20 00:50:51;;;;;;;16.75;3.50;;;4.70;99.90;;;;;;5006304;28;20049;-88
2021/03/20 00:53:19;;;;;;;12.98;3.33;;;4.70;99.90;;;;;;5006347;28;20042;-88
2021/03/20 00:55:46;;;;;;;12.77;2.95;;;4.70;99.90;;;;;;4993400;28;20111;-88
2021/03/20 00:58:24;;;;;;;9.40;3.42;;;4.70;99.90;;;;;;4993719;28;20039;-88
2021/03/20 01:00:53;;;;;;;14.23;4.07;;;4.60;99.90;;;;;;5008863;28;20060;-88
2021/03/20 01:03:20;;;;;;;11.43;2.70;;;4.60;99.90;;;;;;4990369;28;20049;-87
2021/03/20 01:05:47;;;;;;;10.45;3.28;;;4.60;99.90;;;;;;4989993;28;20050;-88
2021/03/20 01:08:16;;;;;;;13.50;3.85;;;4.60;99.90;;;;;;4992189;28;20476;-88
2021/03/20 01:10:43;;;;;;;9.15;2.85;;;4.60;99.90;;;;;;4991914;28;20053;-88
2021/03/20 01:13:10;;;;;;;9.23;2.78;;;4.60;99.90;;;;;;4992286;28;20069;-88
2021/03/20 01:15:36;;;;;;;16.15;3.72;;;4.50;99.90;;;;;;4993025;28;20049;-88
2021/03/20 01:18:04;;;;;;;9.25;3.05;;;4.50;99.90;;;;;;5005703;28;20041;-88
2021/03/20 01:20:31;;;;;;;14.73;3.70;;;4.50;99.90;;;;;;4989980;28;20050;-88
2021/03/20 01:22:58;;;;;;;10.63;3.28;;;4.50;99.90;;;;;;4992992;28;20050;-88
2021/03/20 01:25:25;;;;;;;11.38;3.15;;;4.50;99.90;;;;;;4992572;28;20049;-87
2021/03/20 01:27:53;;;;;;;14.27;3.63;;;4.40;99.90;;;;;;4992176;28;20137;-88
2021/03/20 01:30:24;;;;;;;9.30;3.65;;;4.40;99.90;;;;;;4991792;28;20076;-87
2021/03/20 01:32:51;;;;;;;7.82;2.97;;;4.40;99.90;;;;;;4994041;28;20054;-88
2021/03/20 01:35:18;;;;;;;7.97;3.08;;;4.40;99.90;;;;;;4985747;28;20038;-88
2021/03/20 01:37:45;;;;;;;12.57;3.40;;;4.40;99.90;;;;;;4988879;28;20117;-88
2021/03/20 01:40:25;;;;;;;14.85;3.58;;;4.40;99.90;;;;;;4999361;28;20564;-89
2021/03/20 01:42:52;;;;;;;7.00;2.97;;;4.40;99.90;;;;;;4995767;28;20484;-88
2021/03/20 01:45:26;;;;;;;10.93;3.58;;;4.40;99.90;;;;;;4990695;28;20054;-88
2021/03/20 01:48:18;;;;;;;17.67;3.53;;;4.40;99.90;;;;;;4992755;28;20081;-88
2021/03/20 01:51:01;;;;;;;8.88;3.47;;;4.30;99.90;;;;;;4993861;28;20046;-88
2021/03/20 01:53:42;;;;;;;11.48;3.13;;;4.30;99.90;;;;;;4995511;28;20042;-88
2021/03/20 01:56:20;;;;;;;10.52;3.20;;;4.30;99.90;;;;;;5004429;28;20061;-88
2021/03/20 01:58:49;;;;;;;10.63;2.97;;;4.30;99.90;;;;;;4985560;28;20415;-89
2021/03/20 02:01:21;;;;;;;;;;;4.30;99.90;;;;;;4988463;28;20058;-88
2021/03/20 02:03:47;;;;;;;15.07;3.88;;;4.30;99.90;;;;;;5004049;28;19928;-88
2021/03/20 02:06:14;;;;;;;14.55;3.58;;;4.30;99.90;;;;;;4992082;28;20049;-88
2021/03/20 02:08:43;;;;;;;16.83;3.78;;;4.20;99.90;;;;;;4988656;28;20058;-88
2021/03/20 02:11:21;;;;;;;8.68;2.88;;;4.20;99.90;;;;;;4992053;28;20046;-88
2021/03/20 02:14:03;;;;;;;10.82;3.00;;;4.20;99.90;;;;;;4976043;28;20053;-88
2021/03/20 02:16:41;;;;;;;11.75;3.35;;;4.20;99.90;;;;;;4991774;28;20042;-88
2021/03/20 02:19:33;;;;;;;11.13;3.63;;;4.20;99.90;;;;;;4990827;28;20082;-88
2021/03/20 02:22:05;;;;;;;13.85;3.45;;;4.20;99.90;;;;;;4993285;28;20073;-88
2021/03/20 02:24:53;;;;;;;9.77;3.97;;;4.20;99.90;;;;;;4989990;28;20046;-88
2021/03/20 02:27:25;;;;;;;9.98;3.40;;;4.10;99.90;;;;;;4995209;28;20472;-88
2021/03/20 02:30:22;;;;;;;10.30;3.40;;;4.10;99.90;;;;;;4997484;28;20042;-88
2021/03/20 02:33:15;;;;;;;12.40;3.17;;;4.10;99.90;;;;;;4875632;29;20135;-88
2021/03/20 02:36:04;;;;;;;11.55;3.13;;;4.10;99.90;;;;;;4823710;29;20090;-88
2021/03/20 02:38:47;;;;;;;12.20;3.25;;;4.00;99.90;;;;;;4848318;29;20069;-88
2021/03/20 02:41:43;;;;;;;10.57;3.60;;;4.00;99.90;;;;;;4836133;29;20504;-88
2021/03/20 02:44:25;;;;;;;9.23;3.33;;;3.90;99.90;;;;;;4822947;29;20132;-88
2021/03/20 02:46:59;;;;;;;12.63;3.50;;;3.90;99.90;;;;;;4834910;29;20051;-88
2021/03/20 02:49:45;;;;;;;14.00;3.58;;;3.90;99.90;;;;;;4840515;29;20054;-88
2021/03/20 02:52:17;;;;;;;9.25;3.88;;;3.90;99.90;;;;;;4839632;29;20050;-88
2021/03/20 02:54:53;;;;;;;12.40;4.30;;;3.80;99.90;;;;;;4839753;29;20492;-88
2021/03/20 02:57:55;;;;;;;9.32;3.42;;;3.80;99.90;;;;;;4836840;29;20145;-88
2021/03/20 03:00:28;;;;;;;14.70;4.32;;;3.80;99.90;;;;;;4817274;29;20473;-88
2021/03/20 03:02:57;;;;;;;9.30;3.47;;;3.80;99.90;;;;;;4803370;29;20137;-88
2021/03/20 03:05:30;;;;;;;9.32;3.58;;;3.80;99.90;;;;;;4803279;29;20612;-88
2021/03/20 03:08:25;;;;;;;15.45;3.85;;;3.80;99.90;;;;;;4819835;29;20059;-88
2021/03/20 03:11:07;;;;;;;8.15;3.10;;;3.80;99.90;;;;;;4872359;29;20056;-88
2021/03/20 03:13:42;;;;;;;13.18;3.83;;;3.80;99.90;;;;;;4945202;29;20120;-88
2021/03/20 03:16:19;;;;;;;14.18;3.88;;;3.80;99.90;;;;;;4951891;29;20058;-88
2021/03/20 03:18:55;;;;;;;13.32;4.15;;;3.70;99.90;;;;;;4952113;29;20127;-88
2021/03/20 03:21:25;;;;;;;12.23;3.60;;;3.70;99.90;;;;;;4931409;29;20071;-88
2021/03/20 03:23:52;;;;;;;13.13;4.28;;;3.70;99.90;;;;;;4952077;29;20058;-88
2021/03/20 03:26:38;;;;;;;11.65;3.70;;;3.70;99.90;;;;;;4933307;28;20053;-88
2021/03/20 03:29:11;;;;;;;11.50;3.70;;;3.70;99.90;;;;;;4919110;29;20046;-87
2021/03/20 03:32:06;;;;;;;8.88;3.72;;;3.70;99.90;;;;;;4949851;28;20048;-88
2021/03/20 03:35:01;;;;;;;13.95;3.72;;;3.70;99.90;;;;;;4933852;29;20061;-87
2021/03/20 03:37:37;;;;;;;10.27;3.38;;;3.70;99.90;;;;;;4982874;28;20497;-87
2021/03/20 03:40:22;;;;;;;13.38;3.88;;;3.70;99.90;;;;;;5012725;28;20483;-88
2021/03/20 03:42:51;;;;;;;10.73;3.35;;;3.60;99.90;;;;;;5028446;28;20498;-88
2021/03/20 03:45:19;;;;;;;7.72;3.25;;;3.60;99.90;;;;;;5014031;28;20084;-88
2021/03/20 03:47:47;;;;;;;9.45;3.08;;;3.60;99.90;;;;;;5015411;28;20042;-88
2021/03/20 03:50:20;;;;;;;15.73;3.55;;;3.50;99.90;;;;;;5013312;28;20150;-88
2021/03/20 03:52:47;;;;;;;8.63;3.05;;;3.60;99.90;;;;;;5012326;28;20057;-87
2021/03/20 03:55:14;;;;;;;14.88;3.33;;;3.50;99.90;;;;;;5014446;28;20399;-88
2021/03/20 03:57:54;;;;;;;12.57;3.17;;;3.50;99.90;;;;;;5003698;28;20050;-88
2021/03/20 04:00:32;;;;;;;13.13;3.08;;;3.50;99.90;;;;;;5007773;28;20053;-88
2021/03/20 04:03:16;;;;;;;13.00;2.90;;;3.50;99.90;;;;;;5008321;28;20077;-88
2021/03/20 04:05:58;;;;;;;10.20;3.38;;;3.50;99.90;;;;;;5019912;28;20037;-87
2021/03/20 04:08:41;;;;;;;11.68;3.55;;;3.60;99.90;;;;;;5013130;28;20049;-87
2021/03/20 04:11:32;;;;;;;18.45;3.90;;;3.50;99.90;;;;;;5011380;28;20124;-88
2021/03/20 04:14:22;;;;;;;12.43;3.55;;;3.50;99.90;;;;;;4999404;28;20042;-88
2021/03/20 04:17:04;;;;;;;10.23;3.05;;;3.50;99.90;;;;;;5012311;28;20042;-88
2021/03/20 04:20:00;;;;;;;15.93;3.80;;;3.50;99.90;;;;;;5007386;28;20052;-87
2021/03/20 04:22:48;;;;;;;8.88;3.70;;;3.50;99.90;;;;;;5010893;28;20068;-87
2021/03/20 04:25:49;;;;;;;9.35;3.20;;;3.50;99.90;;;;;;5013824;28;20057;-88
2021/03/20 04:28:22;;;;;;;12.45;3.42;;;3.50;99.90;;;;;;4967309;28;20058;-88
2021/03/20 04:31:04;;;;;;;11.20;3.60;;;3.50;99.90;;;;;;4965213;28;20461;-88
2021/03/20 04:33:40;;;;;;;14.70;3.60;;;3.50;99.90;;;;;;4967315;28;20067;-87
2021/03/20 04:36:17;;;;;;;7.60;3.00;;;3.40;99.90;;;;;;4949456;28;20107;-87
2021/03/20 04:38:45;;;;;;;11.00;3.40;;;3.40;99.90;;;;;;4951737;28;20039;-88
2021/03/20 04:41:14;;;;;;;10.32;3.60;;;3.40;99.90;;;;;;4948968;28;20051;-88
2021/03/20 04:43:41;;;;;;;12.40;3.70;;;3.40;99.90;;;;;;4967769;28;20055;-87
2021/03/20 04:46:21;;;;;;;10.68;3.22;;;3.40;99.90;;;;;;4956219;28;20163;-88
2021/03/20 04:49:15;;;;;;;15.93;3.88;;;3.40;99.90;;;;;;4971232;28;20050;-88
2021/03/20 04:51:51;;;;;;;10.95;3.58;;;3.30;99.90;;;;;;4953261;28;20051;-86
2021/03/20 04:54:21;;;;;;;12.35;3.33;;;3.30;99.90;;;;;;4966968;28;20051;-88
2021/03/20 04:57:14;;;;;;;15.95;3.67;;;3.30;99.90;;;;;;4960550;28;20073;-88
2021/03/20 04:59:55;;;;;;;10.90;3.60;;;3.30;99.90;;;;;;4949120;28;20046;-87
2021/03/20 05:02:31;;;;;;;12.20;3.35;;;3.30;99.90;;;;;;4954011;28;20042;-87
2021/03/20 05:05:17;;;;;;;14.68;3.65;;;3.30;99.90;;;;;;5004541;28;20052;-88
2021/03/20 05:07:44;;;;;;;12.65;3.58;;;3.30;99.90;;;;;;5010413;28;20072;-87
2021/03/20 05:10:41;;;;;;;13.93;3.42;;;3.30;99.90;;;;;;5023360;28;20431;-88
2021/03/20 05:13:36;;;;;;;10.98;3.70;;;3.30;99.90;;;;;;4999396;28;20046;-88
2021/03/20 05:16:17;;;;;;;12.70;3.30;;;3.30;99.90;;;;;;4948573;28;20134;-88
2021/03/20 05:18:49;;;;;;;8.88;3.50;;;3.30;99.90;;;;;;4949268;28;20039;-87
2021/03/20 05:21:36;;;;;;;12.73;3.97;;;3.30;99.90;;;;;;4936884;29;20751;-87
2021/03/20 05:24:05;;;;;;;10.32;3.17;;;3.30;99.90;;;;;;4951177;29;20529;-88
2021/03/20 05:26:33;;;;;;;15.23;3.90;;;3.30;99.90;;;;;;4949147;28;20054;-88
2021/03/20 05:28:59;;;;;;;11.63;3.60;;;3.30;99.90;;;;;;4951438;28;20054;-88
2021/03/20 05:31:29;;;;;;;11.88;3.83;;;3.30;99.90;;;;;;4931969;28;20043;-88
2021/03/20 05:33:57;;;;;;;10.80;4.43;;;3.30;99.90;;;;;;4948682;28;20051;-88
2021/03/20 05:36:24;;;;;;;15.43;3.65;;;3.30;99.90;;;;;;4957251;28;20078;-89
2021/03/20 05:38:51;;;;;;;14.35;4.05;;;3.30;99.90;;;;;;4943253;28;20051;-88
2021/03/20 05:41:53;;;;;;;15.55;3.80;;;3.30;99.90;;;;;;4950255;29;20039;-88
2021/03/20 05:44:31;;;;;;;15.48;3.72;;;3.30;99.90;;;;;;4939001;29;20043;-88
2021/03/20 05:47:12;;;;;;;13.55;4.30;;;3.30;99.90;;;;;;4951573;28;20043;-88
2021/03/20 05:49:53;;;;;;;14.23;3.58;;;3.30;99.90;;;;;;4949935;28;20126;-88
2021/03/20 05:53:02;;;;;;;13.90;3.60;;;3.30;99.90;;;;;;4947302;28;20042;-87
2021/03/20 05:55:55;;;;;;;14.95;3.83;;;3.30;99.90;;;;;;4956525;28;20138;-88
2021/03/20 05:58:48;;;;;;;11.90;3.83;;;3.30;99.90;;;;;;4955404;28;20108;-88
2021/03/20 06:01:20;;;;;;;18.50;3.90;;;3.30;99.90;;;;;;4974212;28;20086;-88
2021/03/20 06:03:55;;;;;;;13.90;3.63;;;3.20;99.90;;;;;;4970615;28;20059;-88
2021/03/20 06:06:42;;;;;;;13.95;3.70;;;3.30;99.90;;;;;;4969019;28;20054;-88
2021/03/20 06:09:53;;;;;;;15.25;3.70;;;3.30;99.90;;;;;;4957271;28;20047;-88
2021/03/20 06:12:31;;;;;;;11.13;4.18;;;3.30;99.90;;;;;;4911898;29;20448;-88
2021/03/20 06:15:04;;;;;;;10.77;3.38;;;3.30;99.90;;;;;;4913303;29;20048;-88
2021/03/20 06:18:01;;;;;;;17.30;3.90;;;3.30;99.90;;;;;;4899238;29;20146;-88
2021/03/20 06:20:52;;;;;;;12.57;3.70;;;3.30;99.90;;;;;;4909677;29;20052;-88
2021/03/20 06:23:24;;;;;;;16.48;3.85;;;3.30;99.90;;;;;;4916318;29;20383;-88
2021/03/20 06:26:18;;;;;;;12.85;3.67;;;3.30;99.90;;;;;;4914418;29;20048;-88
2021/03/20 06:28:58;;;;;;;10.07;3.28;;;3.40;99.90;;;;;;4895958;29;20044;-88
2021/03/20 06:31:45;;;;;;;12.50;3.40;;;3.40;99.90;;;;;;4911807;28;20512;-88
2021/03/20 06:34:19;;;;;;;13.20;3.63;;;3.40;99.90;;;;;;4936346;29;21096;-88
2021/03/20 06:37:03;;;;;;;8.70;3.25;;;3.40;99.90;;;;;;4951680;28;20053;-88
2021/03/20 06:39:38;;;;;;;15.68;3.70;;;3.40;99.90;;;;;;4952437;29;20043;-88
2021/03/20 06:42:30;;;;;;;12.68;3.60;;;3.40;99.90;;;;;;4937894;29;20396;-88
2021/03/20 06:45:22;;;;;;;11.07;3.45;;;3.50;99.90;;;;;;4938334;29;20106;-88
2021/03/20 06:47:53;;;;;;;13.23;4.03;;;3.50;99.90;;;;;;4943219;28;20054;-88
2021/03/20 06:50:28;;;;;;;18.88;3.90;;;3.50;99.90;;;;;;5011031;28;20038;-88
2021/03/20 06:53:03;;;;;;;18.58;4.80;;;3.60;99.90;;;;;;4998084;28;20046;-87
2021/03/20 06:55:32;;;;;;;11.82;3.33;;;3.60;99.90;;;;;;5012700;28;20045;-88
2021/03/20 06:58:14;;;;;;;10.65;3.28;;;3.60;99.90;;;;;;5015327;28;20037;-87
2021/03/20 07:00:41;;;;;;;11.32;3.25;;;3.70;99.90;;;;;;5010122;28;20038;-88
2021/03/20 07:03:13;;;;;;;15.35;3.47;;;3.70;99.90;;;;;;5010818;28;20124;-88
2021/03/20 07:06:17;;;;;;;15.25;3.15;;;3.80;99.90;;;;;;5014774;28;20042;-89
2021/03/20 07:09:01;;;;;;;14.45;3.03;;;3.90;99.90;;;;;;4912886;29;20505;-88
2021/03/20 07:11:32;;;;;;;15.85;3.15;;;3.90;99.90;;;;;;4900521;29;20103;-88
2021/03/20 07:14:36;;;;;;;9.70;3.03;;;4.00;99.90;;;;;;4894980;29;20450;-88
2021/03/20 07:17:05;;;;;;;12.18;3.20;;;4.10;99.90;;;;;;4908608;29;20051;-88
2021/03/20 07:19:32;;;;;;;16.60;3.65;;;4.10;99.90;;;;;;4909487;29;20064;-88
2021/03/20 07:21:59;;;;;;;8.80;2.92;;;4.20;99.90;;;;;;4913393;29;20131;-87
2021/03/20 07:24:39;;;;;;;10.15;3.38;;;4.30;99.90;;;;;;4910365;29;20048;-88
2021/03/20 07:27:30;;;;;;;11.88;2.70;;;4.40;99.90;;;;;;4892280;29;20044;-89
2021/03/20 07:30:00;;;;;;;11.85;3.83;;;4.50;99.90;;;;;;4888930;29;20135;-87
2021/03/20 07:32:30;;;;;;;18.48;3.40;;;4.60;99.90;;;;;;4893769;29;20056;-88
2021/03/20 07:35:14;;;;;;;13.23;3.17;;;4.70;99.90;;;;;;4910000;29;20056;-88
2021/03/20 07:37:41;;;;;;;9.63;2.63;;;4.80;99.90;;;;;;4894466;29;20179;-88
2021/03/20 07:40:19;;;;;;;8.68;2.35;;;4.90;99.90;;;;;;4896155;29;20457;-87
2021/03/20 07:42:46;;;;;;;11.77;2.72;;;5.00;99.90;;;;;;4891163;29;20565;-88
2021/03/20 07:45:19;;;;;;;14.02;2.70;;;5.10;99.90;;;;;;4956503;28;20049;-88
2021/03/20 07:47:55;;;;;;;14.27;2.72;;;5.20;99.90;;;;;;4991123;28;20478;-87
2021/03/20 07:50:43;;;;;;;12.93;2.83;;;5.30;99.90;;;;;;4990432;28;20038;-88
2021/03/20 07:53:10;;;;;;;8.93;2.78;;;5.30;99.90;;;;;;4985932;28;20053;-87
2021/03/20 07:56:05;;;;;;;9.00;2.92;;;5.40;99.90;;;;;;4989634;28;20049;-87
2021/03/20 07:58:46;;;;;;;9.35;2.25;;;5.60;99.90;;;;;;4999590;28;20467;-88
2021/03/20 08:01:18;;;;;;;9.88;2.40;;;5.70;99.90;;;;;;4998603;28;20298;-87
2021/03/20 08:03:55;;;;;;;10.98;2.05;;;5.80;99.90;;;;;;4999133;28;20038;-87
2021/03/20 08:06:24;;;;;;;9.13;2.40;;;5.90;99.90;;;;;;5002924;28;20054;-87
2021/03/20 08:09:10;;;;;;;;;;;6.00;99.90;;;;;;4992954;28;20479;-87
2021/03/20 08:11:38;;;;;;;13.57;3.42;;;6.10;99.90;;;;;;5004775;28;20355;-87
2021/03/20 08:14:13;;;;;;;7.60;2.33;;;6.10;99.90;;;;;;5003797;28;20042;-86
2021/03/20 08:16:41;;;;;;;10.05;2.50;;;6.30;99.90;;;;;;5006216;28;20165;-87
2021/03/20 08:19:13;;;;;;;;;;;6.40;99.90;;;;;;5015783;28;20129;-88
2021/03/20 08:22:02;;;;;;;11.50;2.90;;;6.50;99.90;;;;;;5007881;28;19925;-87
2021/03/20 08:24:28;;;;;;;10.13;2.70;;;6.60;99.90;;;;;;5008138;28;20050;-87
2021/03/20 08:26:57;;;;;;;8.82;2.40;;;6.70;99.90;;;;;;5005938;28;20049;-87
2021/03/20 08:29:54;;;;;;;8.93;2.65;;;6.80;99.90;;;;;;5002661;28;20053;-87
2021/03/20 08:32:26;;;;;;;11.40;2.88;;;7.00;99.90;;;;;;5001223;28;20042;-87
2021/03/20 08:35:08;;;;;;;8.45;2.40;;;7.10;99.90;;;;;;5005194;28;20061;-87
2021/03/20 08:37:50;;;;;;;10.95;2.90;;;7.30;99.90;;;;;;5004507;28;20476;-88
2021/03/20 08:40:43;;;;;;;10.07;3.00;;;7.30;99.90;;;;;;5007855;28;20364;-87
2021/03/20 08:43:29;;;;;;;10.05;2.40;;;7.50;99.90;;;;;;5005146;28;20480;-88
2021/03/20 08:46:20;;;;;;;8.93;2.63;;;7.60;99.90;;;;;;5007407;28;20115;-88
2021/03/20 08:49:01;;;;;;;6.82;2.50;;;7.70;99.90;;;;;;5020126;28;20137;-88
2021/03/20 08:51:28;;;;;;;6.20;2.15;;;7.80;99.90;;;;;;5004539;28;20046;-88
2021/03/20 08:54:20;;;;;;;9.07;2.50;;;7.80;99.90;;;;;;5005560;28;20060;-86
2021/03/20 08:57:08;;;;;;;9.75;2.28;;;7.90;99.90;;;;;;4932404;28;20133;-88
2021/03/20 08:59:44;;;;;;;25.40;3.25;;;7.90;99.90;;;;;;4939746;28;20054;-88
2021/03/20 09:02:23;;;;;;;7.50;2.30;;;8.00;99.90;;;;;;4933506;28;20047;-89
2021/03/20 09:05:11;;;;;;;8.20;2.30;;;8.10;99.90;;;;;;4939150;28;20043;-91
2021/03/20 09:08:05;;;;;;;10.43;2.45;;;8.20;99.90;;;;;;4935861;28;20053;-90
2021/03/20 09:10:40;;;;;;;7.88;1.92;;;8.30;99.90;;;;;;4915373;29;20048;-91
2021/03/20 09:13:46;;;;;;;10.27;2.35;;;8.50;99.90;;;;;;4932381;28;20058;-89
2021/03/20 09:16:26;;;;;;;6.63;1.98;;;8.60;99.90;;;;;;4922844;28;20047;-88
2021/03/20 09:18:55;;;;;;;9.05;2.13;;;8.80;99.90;;;;;;4950371;28;20046;-89
2021/03/20 09:21:22;;;;;;;7.97;1.90;;;8.90;99.90;;;;;;4927557;28;20379;-88
2021/03/20 09:23:50;;;;;;;7.10;2.00;;;8.90;99.90;;;;;;4918975;29;20055;-88
2021/03/20 09:26:41;;;;;;;7.20;2.13;;;8.90;99.90;;;;;;4919204;28;20071;-87
2021/03/20 09:29:33;;;;;;;6.35;1.67;;;9.10;99.90;;;;;;4918358;28;20051;-87
2021/03/20 09:32:05;;;;;;;6.95;1.65;;;9.10;99.90;;;;;;4918336;29;20048;-87
2021/03/20 09:34:34;;;;;;;9.52;1.73;;;9.20;99.90;;;;;;4979282;28;20050;-88
2021/03/20 09:37:18;;;;;;;6.03;2.22;;;9.20;99.90;;;;;;5009282;28;20069;-88
2021/03/20 09:39:51;;;;;;;9.82;1.70;;;9.20;99.90;;;;;;5002233;28;20426;-86
2021/03/20 09:42:24;;;;;;;8.35;1.55;;;9.30;99.90;;;;;;4989880;28;20041;-84
2021/03/20 09:44:51;;;;;;;6.45;1.40;;;9.40;99.90;;;;;;5029330;28;20390;-84
2021/03/20 09:47:35;;;;;;;5.80;1.48;;;9.50;99.90;;;;;;4994648;28;20052;-84
2021/03/20 09:50:28;;;;;;;5.90;1.30;;;9.60;99.90;;;;;;5010577;28;20415;-87
2021/03/20 09:53:10;;;;;;;5.85;1.00;;;9.80;99.90;;;;;;5018423;28;20045;-86
2021/03/20 09:55:39;;;;;;;3.58;0.60;;;9.90;99.90;;;;;;5026553;28;20046;-86
2021/03/20 09:58:28;;;;;;;3.50;0.70;;;10.00;99.90;;;;;;5002506;28;20061;-86
2021/03/20 10:00:56;;;;;;;3.95;0.60;;;10.10;99.90;;;;;;5006045;28;20104;-87
2021/03/20 10:04:01;;;;;;;4.30;0.80;;;10.30;99.90;;;;;;5024819;28;20044;-86
2021/03/20 10:06:38;;;;;;;3.50;0.95;;;10.40;99.90;;;;;;4952905;28;20283;-85
2021/03/20 10:09:17;;;;;;;5.72;1.05;;;10.50;99.90;;;;;;4971807;28;20109;-84
2021/03/20 10:12:07;;;;;;;3.92;0.85;;;10.60;99.90;;;;;;4964783;28;20521;-83
2021/03/20 10:14:49;;;;;;;3.22;0.80;;;10.70;99.90;;;;;;4948713;28;20541;-83
2021/03/20 10:17:21;;;;;;;4.25;1.05;;;10.80;99.90;;;;;;4932624;28;20055;-83
2021/03/20 10:19:51;;;;;;;1.75;0.50;;;10.80;99.90;;;;;;4965889;28;20039;-83
2021/03/20 10:22:30;;;;;;;4.88;0.65;;;10.90;99.90;;;;;;4951830;28;20090;-83
2021/03/20 10:24:57;;;;;;;3.63;0.60;;;10.90;99.90;;;;;;4963215;28;20043;-83
2021/03/20 10:27:32;;;;;;;1.30;0.40;;;11.00;99.90;;;;;;4934898;28;20801;-83
2021/03/20 10:30:14;;;;;;;4.78;1.08;;;11.00;99.90;;;;;;4946283;28;20282;-83
2021/03/20 10:33:04;;;;;;;3.40;0.80;;;11.00;99.90;;;;;;4965492;28;20063;-84
2021/03/20 10:35:33;;;;;;;2.22;0.80;;;11.00;99.00;;;;;;4946785;28;20055;-82
2021/03/20 10:38:24;;;;;;;3.92;1.20;;;11.00;99.90;;;;;;4939956;28;20095;-84
2021/03/20 10:41:22;;;;;;;3.53;1.10;;;11.10;99.90;;;;;;4981741;28;20057;-83
2021/03/20 10:44:12;;;;;;;;;;;11.10;99.90;;;;;;4930189;28;20054;-83
2021/03/20 10:46:58;;;;;;;3.28;2.15;;;11.00;99.90;;;;;;4930099;29;20013;-83
2021/03/20 10:49:26;;;;;;;2.88;1.90;;;11.10;99.90;;;;;;4936559;28;20051;-84
2021/03/20 10:51:56;;;;;;;5.07;2.00;;;11.10;99.90;;;;;;4937669;28;20047;-83
2021/03/20 10:54:32;;;;;;;6.35;1.88;;;11.20;99.90;;;;;;4948412;28;21570;-83
2021/03/20 10:57:06;;;;;;;6.82;2.22;;;11.20;99.90;;;;;;4953452;28;20047;-84
2021/03/20 10:59:41;;;;;;;6.28;2.42;;;11.20;99.90;;;;;;4931062;29;20106;-83
2021/03/20 11:02:26;;;;;;;;;;;11.20;99.90;;;;;;4943762;28;20528;-83
2021/03/20 11:05:08;;;;;;;3.15;2.10;;;11.20;99.90;;;;;;4944958;28;19922;-83
2021/03/20 11:08:04;;;;;;;5.57;2.55;;;11.30;99.90;;;;;;4949329;28;20124;-83
2021/03/20 11:10:37;;;;;;;5.75;2.85;;;11.10;99.90;;;;;;4921299;29;20509;-83
2021/03/20 11:13:20;;;;;;;6.07;3.00;;;10.90;99.90;;;;;;4917766;29;20048;-83
2021/03/20 11:15:50;;;;;;;5.15;2.72;;;10.90;99.90;;;;;;4914858;29;20056;-83
2021/03/20 11:18:26;;;;;;;7.45;3.30;;;10.80;99.90;;;;;;4936821;29;20047;-84
2021/03/20 11:20:52;;;;;;;5.20;3.05;;;10.90;99.90;;;;;;4990073;28;20052;-83
2021/03/20 11:23:34;;;;;;;7.38;3.30;;;11.00;99.90;;;;;;4994673;28;20045;-83
2021/03/20 11:26:10;;;;;;;5.38;3.17;;;11.20;99.90;;;;;;5000788;28;20046;-84
2021/03/20 11:28:37;;;;;;;5.20;3.25;;;11.30;99.90;;;;;;4993521;28;20042;-83
2021/03/20 11:31:06;;;;;;;5.80;3.40;;;11.50;99.90;;;;;;4991717;28;20046;-83
2021/03/20 11:33:39;;;;;;;6.35;3.33;;;11.50;99.90;;;;;;4993076;28;20170;-83
2021/03/20 11:36:12;;;;;;;6.30;3.40;;;11.60;99.90;;;;;;4991329;28;20041;-84
2021/03/20 11:38:39;;;;;;;4.63;3.03;;;11.70;99.90;;;;;;4995681;28;20045;-83
2021/03/20 11:41:06;;;;;;;4.88;3.20;;;11.70;99.90;;;;;;4993988;28;20502;-84
2021/03/20 11:43:42;;;;;;;7.85;3.17;;;11.70;99.90;;;;;;5012283;28;20046;-84
2021/03/20 11:46:16;;;;;;;5.10;3.20;;;11.70;99.90;;;;;;4996056;28;20053;-84
2021/03/20 11:49:06;;;;;;;6.68;2.72;;;11.80;99.90;;;;;;4995455;28;20049;-84
2021/03/20 11:51:36;;;;;;;4.78;2.90;;;12.00;99.90;;;;;;4998540;28;20073;-84
2021/03/20 11:54:06;;;;;;;5.43;3.42;;;12.20;99.90;;;;;;4997376;28;20050;-83
2021/03/20 11:56:35;;;;;;;6.88;3.78;;;12.40;99.90;;;;;;4997583;28;20448;-85
2021/03/20 11:59:25;;;;;;;5.82;3.20;;;12.50;99.90;;;;;;4993452;28;20064;-84
2021/03/20 12:01:51;;;;;;;;;;;12.40;99.90;;;;;;4991401;28;20049;-82
2021/03/20 12:04:28;;;;;;;6.47;3.40;;;12.20;99.90;;;;;;4990206;28;19927;-84
2021/03/20 12:07:19;;;;;;;6.82;4.50;;;12.00;99.90;;;;;;4987355;28;20049;-84
2021/03/20 12:09:45;;;;;;;5.90;3.67;;;11.80;99.90;;;;;;4996959;28;20057;-84
2021/03/20 12:12:12;;;;;;;6.85;3.88;;;11.80;99.90;;;;;;5010692;28;20107;-85
2021/03/20 12:14:41;;;;;;;4.35;3.45;;;11.80;99.90;;;;;;5011948;28;20042;-84
2021/03/20 12:17:25;;;;;;;5.63;3.22;;;11.90;99.90;;;;;;5028536;28;20125;-87
2021/03/20 12:20:04;;;;;;;5.13;2.83;;;12.10;99.90;;;;;;5010802;28;20089;-86
2021/03/20 12:22:33;;;;;;;6.78;2.97;;;12.20;99.90;;;;;;5026793;28;20049;-87
2021/03/20 12:25:11;;;;;;;5.25;2.97;;;12.20;99.90;;;;;;5028003;28;20131;-88
2021/03/20 12:27:39;;;;;;;7.93;3.40;;;12.20;99.90;;;;;;5011167;28;20069;-85
2021/03/20 12:30:18;;;;;;;7.15;3.15;;;12.20;99.90;;;;;;5012715;28;20053;-85
2021/03/20 12:32:46;;;;;;;7.80;3.78;;;12.10;99.90;;;;;;5013836;28;20110;-85
2021/03/20 12:35:22;;;;;;;4.07;2.85;;;12.00;99.90;;;;;;5013234;28;20049;-86
2021/03/20 12:38:12;;;;;;;6.97;3.55;;;11.90;99.90;;;;;;5012636;28;20471;-85
2021/03/20 12:40:42;;;;;;;6.82;3.60;;;11.70;99.90;;;;;;5010477;28;20041;-86
2021/03/20 12:43:18;;;;;;;7.20;4.07;;;11.70;99.90;;;;;;5014823;28;20051;-86
2021/03/20 12:45:45;;;;;;;6.40;3.58;;;11.70;99.90;;;;;;5014886;28;20245;-86
2021/03/20 12:48:16;;;;;;;6.65;3.20;;;11.70;99.90;;;;;;5013711;28;20083;-86
2021/03/20 12:50:43;;;;;;;5.18;3.05;;;11.70;99.90;;;;;;5014331;28;20390;-86
2021/03/20 12:53:10;;;;;;;6.13;3.05;;;11.90;99.90;;;;;;5012731;28;20069;-86
2021/03/20 12:55:37;;;;;;;6.45;3.60;;;12.00;99.90;;;;;;5013235;28;20051;-86
2021/03/20 12:58:04;;;;;;;7.35;3.78;;;12.10;99.90;;;;;;5011199;28;20049;-86
2021/03/20 13:00:31;;;;;;;8.45;3.55;;;12.20;99.90;;;;;;5011359;28;20049;-86
2021/03/20 13:03:00;;;;;;;11.20;4.18;;;12.40;99.90;;;;;;5013896;28;20045;-86
2021/03/20 13:05:33;;;;;;;6.90;4.40;;;12.40;99.90;;;;;;5011320;28;20069;-86
2021/03/20 13:08:00;;;;;;;7.50;4.05;;;12.20;99.90;;;;;;5019208;28;20048;-86
2021/03/20 13:10:27;;;;;;;6.22;3.88;;;12.10;99.90;;;;;;5010591;28;20045;-86
2021/03/20 13:12:54;;;;;;;6.47;3.75;;;12.00;99.90;;;;;;5009036;28;20668;-86
2021/03/20 13:15:21;;;;;;;9.07;4.15;;;12.10;99.90;;;;;;5003381;28;20133;-86
2021/03/20 13:17:48;;;;;;;5.47;3.70;;;12.20;99.90;;;;;;5006792;28;20050;-84
2021/03/20 13:20:17;;;;;;;10.50;3.53;;;12.10;99.90;;;;;;5007909;28;20060;-86
2021/03/20 13:22:43;;;;;;;7.13;3.72;;;12.00;99.90;;;;;;5008411;28;25269;-86
2021/03/20 13:25:22;;;;;;;5.95;3.40;;;12.00;99.90;;;;;;5007863;28;20506;-86
2021/03/20 13:27:49;;;;;;;6.57;3.20;;;11.90;99.60;;;;;;5005725;28;20049;-85
2021/03/20 13:30:23;;;;;;;6.65;3.20;;;12.00;99.90;;;;;;5004923;28;20049;-85
2021/03/20 13:32:52;;;;;;;6.57;3.10;;;12.10;99.90;;;;;;5020033;28;20495;-86
2021/03/20 13:35:23;;;;;;;9.30;3.80;;;12.20;99.90;;;;;;5003087;28;20053;-80
2021/03/20 13:37:50;;;;;;;;;;;12.40;99.90;;;;;;5003887;28;20423;-82
2021/03/20 13:40:18;;;;;;;5.97;3.28;;;12.50;99.90;;;;;;5006520;28;20341;-81